sensor_id;sensor_type;location;lat;lon;timestamp;P1;durP1;ratioP1;P2;durP2;ratioP2
5295;SDS011;2670;42.720;23.336;2023-03-01T00:00:07;8.70;;;4.70;;
5295;SDS011;2670;42.720;23.336;2023-03-01T00:02:35;5.33;;;3.40;;
5295;SDS011;2670;42.720;23.336;2023-03-01T00:05:02;6.40;;;4.70;;
5295;SDS011;2670;42.720;23.336;2023-03-01T00:07:30;7.57;;;4.27;;
5295;SDS011;2670;42.720;23.336;2023-03-01T00:09:58;4.37;;;3.30;;
5295;SDS011;2670;42.720;23.336;2023-03-01T00:12:25;7.87;;;3.67;;
5295;SDS011;2670;42.720;23.336;2023-03-01T00:14:52;2.80;;;2.47;;
5295;SDS011;2670;42.720;23.336;2023-03-01T00:17:19;3.90;;;2.93;;
5295;SDS011;2670;42.720;23.336;2023-03-01T00:19:46;4.07;;;2.50;;
5295;SDS011;2670;42.720;23.336;2023-03-01T00:22:13;3.57;;;2.90;;
5295;SDS011;2670;42.720;23.336;2023-03-01T00:24:40;3.63;;;2.70;;
5295;SDS011;2670;42.720;23.336;2023-03-01T00:27:08;3.67;;;2.50;;
5295;SDS011;2670;42.720;23.336;2023-03-01T00:29:35;3.53;;;2.30;;
5295;SDS011;2670;42.720;23.336;2023-03-01T00:32:01;3.30;;;2.23;;
5295;SDS011;2670;42.720;23.336;2023-03-01T00:34:28;2.20;;;2.00;;
5295;SDS011;2670;42.720;23.336;2023-03-01T00:36:55;4.93;;;2.10;;
5295;SDS011;2670;42.720;23.336;2023-03-01T00:39:30;3.57;;;2.50;;
5295;SDS011;2670;42.720;23.336;2023-03-01T00:41:58;3.47;;;2.30;;
5295;SDS011;2670;42.720;23.336;2023-03-01T00:44:27;1.87;;;1.70;;
5295;SDS011;2670;42.720;23.336;2023-03-01T00:46:54;2.90;;;2.43;;
5295;SDS011;2670;42.720;23.336;2023-03-01T00:49:20;3.60;;;2.40;;
5295;SDS011;2670;42.720;23.336;2023-03-01T00:51:49;4.07;;;2.47;;
5295;SDS011;2670;42.720;23.336;2023-03-01T00:54:16;3.87;;;2.93;;
5295;SDS011;2670;42.720;23.336;2023-03-01T00:56:43;3.10;;;2.30;;
5295;SDS011;2670;42.720;23.336;2023-03-01T00:59:09;3.03;;;2.23;;
5295;SDS011;2670;42.720;23.336;2023-03-01T01:01:38;2.47;;;2.10;;
5295;SDS011;2670;42.720;23.336;2023-03-01T01:04:06;3.70;;;2.53;;
5295;SDS011;2670;42.720;23.336;2023-03-01T01:06:35;4.10;;;2.23;;
5295;SDS011;2670;42.720;23.336;2023-03-01T01:09:04;3.87;;;3.30;;
5295;SDS011;2670;42.720;23.336;2023-03-01T01:11:32;2.83;;;2.30;;
5295;SDS011;2670;42.720;23.336;2023-03-01T01:14:00;2.43;;;2.23;;
5295;SDS011;2670;42.720;23.336;2023-03-01T01:16:28;2.33;;;2.13;;
5295;SDS011;2670;42.720;23.336;2023-03-01T01:18:56;2.10;;;1.87;;
5295;SDS011;2670;42.720;23.336;2023-03-01T01:21:24;3.40;;;2.00;;
5295;SDS011;2670;42.720;23.336;2023-03-01T01:23:52;2.97;;;2.20;;
5295;SDS011;2670;42.720;23.336;2023-03-01T01:26:20;2.33;;;1.83;;
5295;SDS011;2670;42.720;23.336;2023-03-01T01:28:48;3.90;;;2.13;;
5295;SDS011;2670;42.720;23.336;2023-03-01T01:31:15;2.43;;;2.00;;
5295;SDS011;2670;42.720;23.336;2023-03-01T01:33:43;2.50;;;2.30;;
5295;SDS011;2670;42.720;23.336;2023-03-01T01:36:11;2.57;;;2.37;;
5295;SDS011;2670;42.720;23.336;2023-03-01T01:38:38;2.27;;;2.07;;
5295;SDS011;2670;42.720;23.336;2023-03-01T01:41:07;3.43;;;1.70;;
5295;SDS011;2670;42.720;23.336;2023-03-01T01:43:37;2.77;;;2.00;;
5295;SDS011;2670;42.720;23.336;2023-03-01T01:46:06;2.60;;;2.13;;
5295;SDS011;2670;42.720;23.336;2023-03-01T01:48:46;2.10;;;1.90;;
5295;SDS011;2670;42.720;23.336;2023-03-01T01:51:18;2.80;;;1.80;;
5295;SDS011;2670;42.720;23.336;2023-03-01T01:53:50;2.53;;;2.20;;
5295;SDS011;2670;42.720;23.336;2023-03-01T01:56:21;2.40;;;1.97;;
5295;SDS011;2670;42.720;23.336;2023-03-01T01:58:50;2.07;;;1.87;;
5295;SDS011;2670;42.720;23.336;2023-03-01T02:04:39;2.70;;;2.00;;
5295;SDS011;2670;42.720;23.336;2023-03-01T02:24:07;2.50;;;2.17;;
5295;SDS011;2670;42.720;23.336;2023-03-01T02:26:50;2.23;;;2.03;;
5295;SDS011;2670;42.720;23.336;2023-03-01T02:29:21;2.80;;;2.50;;
5295;SDS011;2670;42.720;23.336;2023-03-01T02:31:49;4.20;;;2.70;;
5295;SDS011;2670;42.720;23.336;2023-03-01T02:34:18;3.63;;;2.57;;
5295;SDS011;2670;42.720;23.336;2023-03-01T02:36:51;2.53;;;2.30;;
5295;SDS011;2670;42.720;23.336;2023-03-01T02:39:22;2.90;;;2.30;;
5295;SDS011;2670;42.720;23.336;2023-03-01T02:41:53;3.73;;;2.70;;
5295;SDS011;2670;42.720;23.336;2023-03-01T02:44:23;3.33;;;2.20;;
5295;SDS011;2670;42.720;23.336;2023-03-01T02:46:51;1.90;;;1.70;;
5295;SDS011;2670;42.720;23.336;2023-03-01T02:49:20;2.17;;;1.97;;
5295;SDS011;2670;42.720;23.336;2023-03-01T02:52:01;2.03;;;1.70;;
5295;SDS011;2670;42.720;23.336;2023-03-01T02:54:38;1.67;;;1.57;;
5295;SDS011;2670;42.720;23.336;2023-03-01T02:57:09;1.70;;;1.60;;
5295;SDS011;2670;42.720;23.336;2023-03-01T02:59:37;1.53;;;1.40;;
5295;SDS011;2670;42.720;23.336;2023-03-01T03:02:06;2.23;;;2.03;;
5295;SDS011;2670;42.720;23.336;2023-03-01T03:04:33;3.20;;;2.27;;
5295;SDS011;2670;42.720;23.336;2023-03-01T03:07:00;2.33;;;2.13;;
5295;SDS011;2670;42.720;23.336;2023-03-01T03:09:27;3.00;;;2.03;;
5295;SDS011;2670;42.720;23.336;2023-03-01T03:11:54;3.40;;;2.30;;
5295;SDS011;2670;42.720;23.336;2023-03-01T03:14:21;2.70;;;2.27;;
5295;SDS011;2670;42.720;23.336;2023-03-01T03:16:50;2.10;;;1.80;;
5295;SDS011;2670;42.720;23.336;2023-03-01T03:19:17;1.90;;;1.70;;
5295;SDS011;2670;42.720;23.336;2023-03-01T03:21:50;2.23;;;1.90;;
5295;SDS011;2670;42.720;23.336;2023-03-01T03:24:17;2.50;;;2.30;;
5295;SDS011;2670;42.720;23.336;2023-03-01T03:26:44;3.23;;;2.83;;
5295;SDS011;2670;42.720;23.336;2023-03-01T03:29:11;4.77;;;4.27;;
5295;SDS011;2670;42.720;23.336;2023-03-01T03:31:37;5.40;;;4.23;;
5295;SDS011;2670;42.720;23.336;2023-03-01T03:34:06;4.10;;;3.70;;
5295;SDS011;2670;42.720;23.336;2023-03-01T03:36:33;4.60;;;3.20;;
5295;SDS011;2670;42.720;23.336;2023-03-01T03:38:59;6.00;;;4.50;;
5295;SDS011;2670;42.720;23.336;2023-03-01T03:41:26;6.20;;;4.67;;
5295;SDS011;2670;42.720;23.336;2023-03-01T03:43:53;6.53;;;4.40;;
5295;SDS011;2670;42.720;23.336;2023-03-01T03:46:20;4.77;;;4.30;;
5295;SDS011;2670;42.720;23.336;2023-03-01T03:49:05;4.70;;;3.30;;
5295;SDS011;2670;42.720;23.336;2023-03-01T03:51:32;5.03;;;4.53;;
5295;SDS011;2670;42.720;23.336;2023-03-01T03:53:59;3.90;;;3.50;;
5295;SDS011;2670;42.720;23.336;2023-03-01T03:56:26;2.27;;;1.90;;
5295;SDS011;2670;42.720;23.336;2023-03-01T03:58:53;2.00;;;1.90;;
5295;SDS011;2670;42.720;23.336;2023-03-01T04:01:19;6.30;;;3.60;;
5295;SDS011;2670;42.720;23.336;2023-03-01T04:03:47;7.83;;;5.33;;
5295;SDS011;2670;42.720;23.336;2023-03-01T04:06:15;4.67;;;3.70;;
5295;SDS011;2670;42.720;23.336;2023-03-01T04:08:41;4.23;;;3.30;;
5295;SDS011;2670;42.720;23.336;2023-03-01T04:11:08;2.47;;;2.20;;
5295;SDS011;2670;42.720;23.336;2023-03-01T04:14:01;3.37;;;2.53;;
5295;SDS011;2670;42.720;23.336;2023-03-01T04:16:29;4.33;;;2.37;;
5295;SDS011;2670;42.720;23.336;2023-03-01T04:18:56;4.07;;;2.57;;
5295;SDS011;2670;42.720;23.336;2023-03-01T04:21:26;6.80;;;2.50;;
5295;SDS011;2670;42.720;23.336;2023-03-01T04:23:52;5.20;;;3.53;;
5295;SDS011;2670;42.720;23.336;2023-03-01T04:26:19;3.67;;;3.00;;
5295;SDS011;2670;42.720;23.336;2023-03-01T04:28:46;2.67;;;2.47;;
5295;SDS011;2670;42.720;23.336;2023-03-01T04:31:16;4.07;;;3.00;;
5295;SDS011;2670;42.720;23.336;2023-03-01T04:33:46;3.50;;;2.50;;
5295;SDS011;2670;42.720;23.336;2023-03-01T04:36:16;2.70;;;2.47;;
5295;SDS011;2670;42.720;23.336;2023-03-01T04:38:46;4.00;;;2.60;;
5295;SDS011;2670;42.720;23.336;2023-03-01T04:41:13;4.27;;;2.50;;
5295;SDS011;2670;42.720;23.336;2023-03-01T04:43:42;4.27;;;2.87;;
5295;SDS011;2670;42.720;23.336;2023-03-01T04:46:10;4.50;;;3.20;;
5295;SDS011;2670;42.720;23.336;2023-03-01T04:48:39;4.30;;;3.17;;
5295;SDS011;2670;42.720;23.336;2023-03-01T04:51:08;3.90;;;3.10;;
5295;SDS011;2670;42.720;23.336;2023-03-01T04:53:35;5.03;;;2.43;;
5295;SDS011;2670;42.720;23.336;2023-03-01T04:56:03;4.70;;;2.63;;
5295;SDS011;2670;42.720;23.336;2023-03-01T04:58:31;3.83;;;2.90;;
5295;SDS011;2670;42.720;23.336;2023-03-01T05:00:58;5.13;;;3.80;;
5295;SDS011;2670;42.720;23.336;2023-03-01T05:03:25;2.60;;;1.83;;
5295;SDS011;2670;42.720;23.336;2023-03-01T05:05:52;3.10;;;2.13;;
5295;SDS011;2670;42.720;23.336;2023-03-01T05:08:19;4.83;;;2.70;;
5295;SDS011;2670;42.720;23.336;2023-03-01T05:10:46;9.43;;;4.83;;
5295;SDS011;2670;42.720;23.336;2023-03-01T05:13:17;11.33;;;4.60;;
5295;SDS011;2670;42.720;23.336;2023-03-01T05:15:47;3.10;;;2.57;;
5295;SDS011;2670;42.720;23.336;2023-03-01T05:18:14;8.20;;;3.70;;
5295;SDS011;2670;42.720;23.336;2023-03-01T05:20:41;6.47;;;4.10;;
5295;SDS011;2670;42.720;23.336;2023-03-01T05:23:09;5.23;;;3.20;;
5295;SDS011;2670;42.720;23.336;2023-03-01T05:25:36;2.40;;;2.17;;
5295;SDS011;2670;42.720;23.336;2023-03-01T05:28:05;5.13;;;2.03;;
5295;SDS011;2670;42.720;23.336;2023-03-01T05:30:34;6.27;;;3.40;;
5295;SDS011;2670;42.720;23.336;2023-03-01T05:33:00;4.10;;;3.30;;
5295;SDS011;2670;42.720;23.336;2023-03-01T05:35:27;5.50;;;4.00;;
5295;SDS011;2670;42.720;23.336;2023-03-01T05:37:57;6.07;;;3.43;;
5295;SDS011;2670;42.720;23.336;2023-03-01T05:40:24;6.03;;;4.27;;
5295;SDS011;2670;42.720;23.336;2023-03-01T05:42:52;5.67;;;4.20;;
5295;SDS011;2670;42.720;23.336;2023-03-01T05:45:20;4.33;;;3.47;;
5295;SDS011;2670;42.720;23.336;2023-03-01T05:47:50;7.67;;;3.80;;
5295;SDS011;2670;42.720;23.336;2023-03-01T05:50:18;6.73;;;3.70;;
5295;SDS011;2670;42.720;23.336;2023-03-01T05:52:46;6.63;;;4.30;;
5295;SDS011;2670;42.720;23.336;2023-03-01T05:55:14;5.77;;;3.70;;
5295;SDS011;2670;42.720;23.336;2023-03-01T05:57:42;7.10;;;3.40;;
5295;SDS011;2670;42.720;23.336;2023-03-01T06:00:09;4.10;;;3.27;;
5295;SDS011;2670;42.720;23.336;2023-03-01T06:02:37;4.37;;;3.27;;
5295;SDS011;2670;42.720;23.336;2023-03-01T06:05:07;4.77;;;3.53;;
5295;SDS011;2670;42.720;23.336;2023-03-01T06:07:35;4.73;;;4.10;;
5295;SDS011;2670;42.720;23.336;2023-03-01T06:10:02;4.37;;;3.10;;
5295;SDS011;2670;42.720;23.336;2023-03-01T06:12:30;5.20;;;3.40;;
5295;SDS011;2670;42.720;23.336;2023-03-01T06:14:57;4.87;;;3.10;;
5295;SDS011;2670;42.720;23.336;2023-03-01T06:17:24;3.60;;;3.00;;
5295;SDS011;2670;42.720;23.336;2023-03-01T06:19:51;4.90;;;3.03;;
5295;SDS011;2670;42.720;23.336;2023-03-01T06:22:19;7.43;;;3.50;;
5295;SDS011;2670;42.720;23.336;2023-03-01T06:24:46;12.10;;;4.00;;
5295;SDS011;2670;42.720;23.336;2023-03-01T06:27:13;3.20;;;2.70;;
5295;SDS011;2670;42.720;23.336;2023-03-01T06:29:40;5.47;;;3.33;;
5295;SDS011;2670;42.720;23.336;2023-03-01T06:32:08;4.40;;;3.30;;
5295;SDS011;2670;42.720;23.336;2023-03-01T06:34:35;4.50;;;3.37;;
5295;SDS011;2670;42.720;23.336;2023-03-01T06:37:01;4.37;;;2.70;;
5295;SDS011;2670;42.720;23.336;2023-03-01T06:39:31;3.60;;;2.47;;
5295;SDS011;2670;42.720;23.336;2023-03-01T06:41:58;2.80;;;2.23;;
5295;SDS011;2670;42.720;23.336;2023-03-01T06:44:26;4.33;;;2.70;;
5295;SDS011;2670;42.720;23.336;2023-03-01T06:46:53;5.90;;;2.50;;
5295;SDS011;2670;42.720;23.336;2023-03-01T06:49:19;7.17;;;2.73;;
5295;SDS011;2670;42.720;23.336;2023-03-01T06:51:46;6.13;;;2.90;;
5295;SDS011;2670;42.720;23.336;2023-03-01T06:54:13;3.00;;;2.67;;
5295;SDS011;2670;42.720;23.336;2023-03-01T06:56:41;4.60;;;3.03;;
5295;SDS011;2670;42.720;23.336;2023-03-01T06:59:08;4.90;;;2.23;;
5295;SDS011;2670;42.720;23.336;2023-03-01T07:01:35;5.63;;;3.27;;
5295;SDS011;2670;42.720;23.336;2023-03-01T07:04:02;7.07;;;2.50;;
5295;SDS011;2670;42.720;23.336;2023-03-01T07:06:28;4.73;;;2.87;;
5295;SDS011;2670;42.720;23.336;2023-03-01T07:08:55;3.97;;;2.40;;
5295;SDS011;2670;42.720;23.336;2023-03-01T07:11:22;5.10;;;2.80;;
5295;SDS011;2670;42.720;23.336;2023-03-01T07:13:50;3.60;;;2.80;;
5295;SDS011;2670;42.720;23.336;2023-03-01T07:16:17;7.83;;;3.20;;
5295;SDS011;2670;42.720;23.336;2023-03-01T07:18:45;4.00;;;2.77;;
5295;SDS011;2670;42.720;23.336;2023-03-01T07:21:13;6.13;;;3.43;;
5295;SDS011;2670;42.720;23.336;2023-03-01T07:23:41;5.33;;;3.50;;
5295;SDS011;2670;42.720;23.336;2023-03-01T07:26:08;9.83;;;3.40;;
5295;SDS011;2670;42.720;23.336;2023-03-01T07:28:35;28.47;;;3.03;;
5295;SDS011;2670;42.720;23.336;2023-03-01T07:31:05;8.30;;;3.20;;
5295;SDS011;2670;42.720;23.336;2023-03-01T07:54:53;3.27;;;2.30;;
5295;SDS011;2670;42.720;23.336;2023-03-01T07:57:20;6.93;;;3.20;;
5295;SDS011;2670;42.720;23.336;2023-03-01T07:59:47;4.10;;;2.20;;
5295;SDS011;2670;42.720;23.336;2023-03-01T08:02:14;4.37;;;2.37;;
5295;SDS011;2670;42.720;23.336;2023-03-01T08:04:41;4.10;;;2.63;;
5295;SDS011;2670;42.720;23.336;2023-03-01T08:07:08;2.73;;;2.00;;
5295;SDS011;2670;42.720;23.336;2023-03-01T08:09:35;8.13;;;3.13;;
5295;SDS011;2670;42.720;23.336;2023-03-01T08:12:04;11.30;;;3.10;;
5295;SDS011;2670;42.720;23.336;2023-03-01T08:14:31;16.43;;;3.70;;
5295;SDS011;2670;42.720;23.336;2023-03-01T08:17:08;15.53;;;5.00;;
5295;SDS011;2670;42.720;23.336;2023-03-01T08:19:35;18.20;;;5.60;;
5295;SDS011;2670;42.720;23.336;2023-03-01T08:22:02;3.13;;;2.27;;
5295;SDS011;2670;42.720;23.336;2023-03-01T08:24:29;1.80;;;1.53;;
5295;SDS011;2670;42.720;23.336;2023-03-01T08:26:56;2.00;;;1.90;;
5295;SDS011;2670;42.720;23.336;2023-03-01T08:29:24;7.63;;;2.83;;
5295;SDS011;2670;42.720;23.336;2023-03-01T08:31:51;3.00;;;2.13;;
5295;SDS011;2670;42.720;23.336;2023-03-01T08:34:18;2.47;;;1.80;;
5295;SDS011;2670;42.720;23.336;2023-03-01T08:36:45;3.30;;;2.00;;
5295;SDS011;2670;42.720;23.336;2023-03-01T08:39:13;4.73;;;2.20;;
5295;SDS011;2670;42.720;23.336;2023-03-01T08:41:42;2.70;;;2.03;;
5295;SDS011;2670;42.720;23.336;2023-03-01T08:44:09;2.40;;;2.13;;
5295;SDS011;2670;42.720;23.336;2023-03-01T08:46:39;6.53;;;2.93;;
5295;SDS011;2670;42.720;23.336;2023-03-01T08:49:07;4.73;;;2.60;;
5295;SDS011;2670;42.720;23.336;2023-03-01T08:51:35;3.60;;;3.00;;
5295;SDS011;2670;42.720;23.336;2023-03-01T08:54:03;2.87;;;2.20;;
5295;SDS011;2670;42.720;23.336;2023-03-01T09:26:36;2.97;;;2.23;;
5295;SDS011;2670;42.720;23.336;2023-03-01T09:29:03;4.40;;;3.13;;
5295;SDS011;2670;42.720;23.336;2023-03-01T09:31:29;5.13;;;3.33;;
5295;SDS011;2670;42.720;23.336;2023-03-01T09:33:56;5.27;;;3.10;;
5295;SDS011;2670;42.720;23.336;2023-03-01T09:36:24;5.80;;;2.97;;
5295;SDS011;2670;42.720;23.336;2023-03-01T09:38:51;3.63;;;2.47;;
5295;SDS011;2670;42.720;23.336;2023-03-01T09:41:26;6.60;;;3.27;;
5295;SDS011;2670;42.720;23.336;2023-03-01T09:44:10;3.83;;;2.73;;
5295;SDS011;2670;42.720;23.336;2023-03-01T09:46:45;4.70;;;2.33;;
5295;SDS011;2670;42.720;23.336;2023-03-01T09:55:08;3.43;;;1.87;;
5295;SDS011;2670;42.720;23.336;2023-03-01T09:57:41;7.13;;;2.80;;
5295;SDS011;2670;42.720;23.336;2023-03-01T10:00:16;2.80;;;1.97;;
5295;SDS011;2670;42.720;23.336;2023-03-01T10:02:52;2.77;;;1.80;;
5295;SDS011;2670;42.720;23.336;2023-03-01T10:05:31;3.20;;;1.90;;
5295;SDS011;2670;42.720;23.336;2023-03-01T10:08:13;3.13;;;2.00;;
5295;SDS011;2670;42.720;23.336;2023-03-01T10:10:58;3.23;;;2.00;;
5295;SDS011;2670;42.720;23.336;2023-03-01T10:13:29;1.47;;;1.37;;
5295;SDS011;2670;42.720;23.336;2023-03-01T10:16:01;1.57;;;1.47;;
5295;SDS011;2670;42.720;23.336;2023-03-01T10:18:35;2.07;;;1.53;;
5295;SDS011;2670;42.720;23.336;2023-03-01T10:21:09;4.40;;;1.80;;
5295;SDS011;2670;42.720;23.336;2023-03-01T10:23:40;1.33;;;1.23;;
5295;SDS011;2670;42.720;23.336;2023-03-01T10:26:11;1.80;;;1.60;;
5295;SDS011;2670;42.720;23.336;2023-03-01T10:28:53;1.93;;;1.83;;
5295;SDS011;2670;42.720;23.336;2023-03-01T10:31:36;1.63;;;1.43;;
5295;SDS011;2670;42.720;23.336;2023-03-01T10:34:10;4.43;;;1.90;;
5295;SDS011;2670;42.720;23.336;2023-03-01T10:36:39;3.20;;;1.60;;
5295;SDS011;2670;42.720;23.336;2023-03-01T10:39:11;2.17;;;1.90;;
5295;SDS011;2670;42.720;23.336;2023-03-01T10:41:57;2.90;;;1.77;;
5295;SDS011;2670;42.720;23.336;2023-03-01T10:44:36;1.80;;;1.70;;
5295;SDS011;2670;42.720;23.336;2023-03-01T10:47:12;5.23;;;1.63;;
5295;SDS011;2670;42.720;23.336;2023-03-01T10:49:51;2.17;;;1.20;;
5295;SDS011;2670;42.720;23.336;2023-03-01T10:52:21;3.20;;;1.93;;
5295;SDS011;2670;42.720;23.336;2023-03-01T10:54:52;3.10;;;2.17;;
5295;SDS011;2670;42.720;23.336;2023-03-01T10:57:27;2.30;;;1.63;;
5295;SDS011;2670;42.720;23.336;2023-03-01T11:00:17;1.60;;;1.50;;
5295;SDS011;2670;42.720;23.336;2023-03-01T11:02:49;2.23;;;1.53;;
5295;SDS011;2670;42.720;23.336;2023-03-01T11:05:27;5.00;;;2.27;;
5295;SDS011;2670;42.720;23.336;2023-03-01T11:07:56;5.77;;;2.97;;
5295;SDS011;2670;42.720;23.336;2023-03-01T11:10:24;1.63;;;1.53;;
5295;SDS011;2670;42.720;23.336;2023-03-01T11:19:37;4.00;;;2.07;;
5295;SDS011;2670;42.720;23.336;2023-03-01T11:22:04;2.80;;;2.20;;
5295;SDS011;2670;42.720;23.336;2023-03-01T11:24:39;1.87;;;1.63;;
5295;SDS011;2670;42.720;23.336;2023-03-01T11:27:12;3.60;;;1.77;;
5295;SDS011;2670;42.720;23.336;2023-03-01T11:46:25;6.40;;;2.57;;
5295;SDS011;2670;42.720;23.336;2023-03-01T11:49:18;10.30;;;1.90;;
5295;SDS011;2670;42.720;23.336;2023-03-01T11:52:07;1.43;;;1.30;;
5295;SDS011;2670;42.720;23.336;2023-03-01T11:54:46;2.53;;;1.63;;
5295;SDS011;2670;42.720;23.336;2023-03-01T11:57:28;1.90;;;1.77;;
5295;SDS011;2670;42.720;23.336;2023-03-01T12:03:22;7.20;;;2.00;;
5295;SDS011;2670;42.720;23.336;2023-03-01T12:06:05;2.93;;;1.80;;
5295;SDS011;2670;42.720;23.336;2023-03-01T12:08:50;2.20;;;1.90;;
5295;SDS011;2670;42.720;23.336;2023-03-01T12:11:31;3.20;;;2.70;;
5295;SDS011;2670;42.720;23.336;2023-03-01T12:14:16;3.47;;;2.80;;
5295;SDS011;2670;42.720;23.336;2023-03-01T12:36:55;4.00;;;2.50;;
5295;SDS011;2670;42.720;23.336;2023-03-01T12:39:33;3.83;;;2.43;;
5295;SDS011;2670;42.720;23.336;2023-03-01T12:42:12;3.90;;;2.33;;
5295;SDS011;2670;42.720;23.336;2023-03-01T12:44:51;2.47;;;2.27;;
5295;SDS011;2670;42.720;23.336;2023-03-01T12:47:31;4.50;;;1.70;;
5295;SDS011;2670;42.720;23.336;2023-03-01T12:50:17;4.37;;;3.10;;
5295;SDS011;2670;42.720;23.336;2023-03-01T12:52:49;3.20;;;2.10;;
5295;SDS011;2670;42.720;23.336;2023-03-01T12:55:28;2.10;;;1.57;;
5295;SDS011;2670;42.720;23.336;2023-03-01T12:58:00;1.50;;;1.40;;
5295;SDS011;2670;42.720;23.336;2023-03-01T13:00:35;2.63;;;1.43;;
5295;SDS011;2670;42.720;23.336;2023-03-01T13:03:12;2.70;;;2.03;;
5295;SDS011;2670;42.720;23.336;2023-03-01T13:05:52;2.60;;;1.67;;
5295;SDS011;2670;42.720;23.336;2023-03-01T13:08:31;5.10;;;1.83;;
5295;SDS011;2670;42.720;23.336;2023-03-01T13:11:03;5.37;;;2.50;;
5295;SDS011;2670;42.720;23.336;2023-03-01T13:13:32;2.93;;;1.90;;
5295;SDS011;2670;42.720;23.336;2023-03-01T13:16:19;3.40;;;2.33;;
5295;SDS011;2670;42.720;23.336;2023-03-01T13:18:49;5.53;;;2.77;;
5295;SDS011;2670;42.720;23.336;2023-03-01T13:21:28;2.93;;;2.00;;
5295;SDS011;2670;42.720;23.336;2023-03-01T13:23:58;4.20;;;2.00;;
5295;SDS011;2670;42.720;23.336;2023-03-01T13:36:46;7.20;;;3.00;;
5295;SDS011;2670;42.720;23.336;2023-03-01T13:39:28;3.53;;;1.77;;
5295;SDS011;2670;42.720;23.336;2023-03-01T13:41:58;8.10;;;2.47;;
5295;SDS011;2670;42.720;23.336;2023-03-01T13:44:29;6.10;;;2.80;;
5295;SDS011;2670;42.720;23.336;2023-03-01T13:46:59;7.57;;;3.00;;
5295;SDS011;2670;42.720;23.336;2023-03-01T13:49:36;9.93;;;5.23;;
5295;SDS011;2670;42.720;23.336;2023-03-01T13:52:20;4.33;;;3.23;;
5295;SDS011;2670;42.720;23.336;2023-03-01T13:55:16;6.70;;;3.47;;
5295;SDS011;2670;42.720;23.336;2023-03-01T13:57:47;8.80;;;4.40;;
5295;SDS011;2670;42.720;23.336;2023-03-01T14:00:28;5.53;;;3.10;;
5295;SDS011;2670;42.720;23.336;2023-03-01T14:03:05;7.30;;;3.20;;
5295;SDS011;2670;42.720;23.336;2023-03-01T14:05:37;5.47;;;2.80;;
5295;SDS011;2670;42.720;23.336;2023-03-01T14:08:04;6.50;;;3.43;;
5295;SDS011;2670;42.720;23.336;2023-03-01T14:27:35;8.00;;;3.30;;
5295;SDS011;2670;42.720;23.336;2023-03-01T14:36:25;8.67;;;4.20;;
5295;SDS011;2670;42.720;23.336;2023-03-01T14:42:11;3.77;;;3.20;;
5295;SDS011;2670;42.720;23.336;2023-03-01T14:48:03;4.60;;;2.57;;
5295;SDS011;2670;42.720;23.336;2023-03-01T14:50:32;4.87;;;2.87;;
5295;SDS011;2670;42.720;23.336;2023-03-01T14:53:02;5.67;;;2.63;;
5295;SDS011;2670;42.720;23.336;2023-03-01T14:55:33;3.80;;;2.53;;
5295;SDS011;2670;42.720;23.336;2023-03-01T14:58:03;4.67;;;2.90;;
5295;SDS011;2670;42.720;23.336;2023-03-01T15:00:31;6.40;;;2.93;;
5295;SDS011;2670;42.720;23.336;2023-03-01T15:03:05;7.27;;;3.03;;
5295;SDS011;2670;42.720;23.336;2023-03-01T15:05:38;8.27;;;3.77;;
5295;SDS011;2670;42.720;23.336;2023-03-01T15:08:07;6.47;;;3.70;;
5295;SDS011;2670;42.720;23.336;2023-03-01T15:23:54;4.60;;;3.07;;
5295;SDS011;2670;42.720;23.336;2023-03-01T15:39:03;4.03;;;2.83;;
5295;SDS011;2670;42.720;23.336;2023-03-01T15:41:32;4.60;;;3.13;;
5295;SDS011;2670;42.720;23.336;2023-03-01T15:44:14;5.50;;;3.03;;
5295;SDS011;2670;42.720;23.336;2023-03-01T15:46:45;15.93;;;3.27;;
5295;SDS011;2670;42.720;23.336;2023-03-01T15:49:21;4.93;;;3.50;;
5295;SDS011;2670;42.720;23.336;2023-03-01T15:51:54;7.30;;;3.57;;
5295;SDS011;2670;42.720;23.336;2023-03-01T15:54:22;10.23;;;2.90;;
5295;SDS011;2670;42.720;23.336;2023-03-01T15:56:52;7.50;;;3.27;;
5295;SDS011;2670;42.720;23.336;2023-03-01T15:59:19;7.33;;;4.07;;
5295;SDS011;2670;42.720;23.336;2023-03-01T16:01:47;7.70;;;3.33;;
5295;SDS011;2670;42.720;23.336;2023-03-01T16:04:15;9.23;;;3.63;;
5295;SDS011;2670;42.720;23.336;2023-03-01T16:06:47;5.57;;;2.93;;
5295;SDS011;2670;42.720;23.336;2023-03-01T16:09:21;8.63;;;4.13;;
5295;SDS011;2670;42.720;23.336;2023-03-01T16:11:48;8.50;;;4.37;;
5295;SDS011;2670;42.720;23.336;2023-03-01T16:14:15;7.97;;;3.90;;
5295;SDS011;2670;42.720;23.336;2023-03-01T16:16:42;6.47;;;3.90;;
5295;SDS011;2670;42.720;23.336;2023-03-01T16:19:10;12.20;;;5.40;;
5295;SDS011;2670;42.720;23.336;2023-03-01T16:21:37;16.00;;;6.87;;
5295;SDS011;2670;42.720;23.336;2023-03-01T16:24:04;21.77;;;8.50;;
5295;SDS011;2670;42.720;23.336;2023-03-01T16:26:33;19.33;;;6.97;;
5295;SDS011;2670;42.720;23.336;2023-03-01T16:29:00;21.07;;;8.60;;
5295;SDS011;2670;42.720;23.336;2023-03-01T16:31:27;17.60;;;8.03;;
5295;SDS011;2670;42.720;23.336;2023-03-01T16:33:54;16.40;;;7.60;;
5295;SDS011;2670;42.720;23.336;2023-03-01T16:36:21;22.23;;;8.43;;
5295;SDS011;2670;42.720;23.336;2023-03-01T16:38:49;24.23;;;8.13;;
5295;SDS011;2670;42.720;23.336;2023-03-01T16:41:18;12.33;;;6.10;;
5295;SDS011;2670;42.720;23.336;2023-03-01T16:43:49;9.87;;;5.73;;
5295;SDS011;2670;42.720;23.336;2023-03-01T16:46:17;10.63;;;4.90;;
5295;SDS011;2670;42.720;23.336;2023-03-01T16:48:45;13.60;;;5.30;;
5295;SDS011;2670;42.720;23.336;2023-03-01T16:51:13;7.70;;;4.67;;
5295;SDS011;2670;42.720;23.336;2023-03-01T16:53:40;9.10;;;4.93;;
5295;SDS011;2670;42.720;23.336;2023-03-01T16:56:07;8.93;;;4.77;;
5295;SDS011;2670;42.720;23.336;2023-03-01T16:58:36;12.80;;;6.40;;
5295;SDS011;2670;42.720;23.336;2023-03-01T17:01:06;14.70;;;6.33;;
5295;SDS011;2670;42.720;23.336;2023-03-01T17:03:36;17.40;;;7.53;;
5295;SDS011;2670;42.720;23.336;2023-03-01T17:06:07;17.90;;;8.37;;
5295;SDS011;2670;42.720;23.336;2023-03-01T17:08:36;20.30;;;8.87;;
5295;SDS011;2670;42.720;23.336;2023-03-01T17:11:04;14.13;;;6.93;;
5295;SDS011;2670;42.720;23.336;2023-03-01T17:13:32;11.70;;;5.90;;
5295;SDS011;2670;42.720;23.336;2023-03-01T17:15:59;13.23;;;6.10;;
5295;SDS011;2670;42.720;23.336;2023-03-01T17:18:30;15.63;;;6.43;;
5295;SDS011;2670;42.720;23.336;2023-03-01T17:20:57;9.57;;;5.80;;
5295;SDS011;2670;42.720;23.336;2023-03-01T17:23:24;9.97;;;5.70;;
5295;SDS011;2670;42.720;23.336;2023-03-01T17:25:51;10.20;;;5.57;;
5295;SDS011;2670;42.720;23.336;2023-03-01T17:28:20;12.70;;;6.87;;
5295;SDS011;2670;42.720;23.336;2023-03-01T17:30:47;11.80;;;6.20;;
5295;SDS011;2670;42.720;23.336;2023-03-01T17:33:14;11.07;;;6.57;;
5295;SDS011;2670;42.720;23.336;2023-03-01T17:35:42;14.00;;;6.97;;
5295;SDS011;2670;42.720;23.336;2023-03-01T17:41:33;15.10;;;7.40;;
5295;SDS011;2670;42.720;23.336;2023-03-01T17:43:59;13.23;;;7.03;;
5295;SDS011;2670;42.720;23.336;2023-03-01T17:46:26;12.77;;;6.70;;
5295;SDS011;2670;42.720;23.336;2023-03-01T17:48:53;17.60;;;6.97;;
5295;SDS011;2670;42.720;23.336;2023-03-01T17:51:22;10.43;;;7.03;;
5295;SDS011;2670;42.720;23.336;2023-03-01T17:53:48;14.33;;;8.50;;
5295;SDS011;2670;42.720;23.336;2023-03-01T17:56:15;16.47;;;8.33;;
5295;SDS011;2670;42.720;23.336;2023-03-01T17:58:42;14.60;;;9.00;;
5295;SDS011;2670;42.720;23.336;2023-03-01T18:01:11;16.17;;;8.37;;
5295;SDS011;2670;42.720;23.336;2023-03-01T18:03:39;17.80;;;9.00;;
5295;SDS011;2670;42.720;23.336;2023-03-01T18:06:09;16.13;;;8.50;;
5295;SDS011;2670;42.720;23.336;2023-03-01T18:08:39;19.30;;;9.60;;
5295;SDS011;2670;42.720;23.336;2023-03-01T18:11:06;15.63;;;9.40;;
5295;SDS011;2670;42.720;23.336;2023-03-01T18:13:33;18.37;;;9.77;;
5295;SDS011;2670;42.720;23.336;2023-03-01T18:16:03;21.93;;;11.70;;
5295;SDS011;2670;42.720;23.336;2023-03-01T18:18:30;15.97;;;10.20;;
5295;SDS011;2670;42.720;23.336;2023-03-01T18:20:57;18.80;;;9.70;;
5295;SDS011;2670;42.720;23.336;2023-03-01T18:23:25;18.97;;;10.27;;
5295;SDS011;2670;42.720;23.336;2023-03-01T18:25:57;20.27;;;10.80;;
5295;SDS011;2670;42.720;23.336;2023-03-01T18:28:25;24.10;;;11.70;;